Flight Track Log - Related Links

Times and Time Zones

All times are in EDT time to prevent confusion due to time zone crossing. See the CTL15 flight status page for this flight to view local times or setup timezone preferences in your user account.

Time Position Orientation Groundspeed Altitude Reporting Facility
EDT Latitude Longitude Course Direction KTS MPH feet Rate Location/Type
Thu 19:40:01 39.6331 -84.1783 46° Northeast 103 119 2,800  Level Indianapolis Center
Thu 19:40:55 39.6528 -84.1517 46° Northeast 107 123 3,900 1,039 Climbing Indianapolis Center
Thu 19:42:08 39.6769 -84.1206 45° Northeast 107 123 5,000 876 Climbing Indianapolis Center
Thu 19:43:12 39.6983 -84.0947 43° Northeast 107 123 5,900 885 Climbing Indianapolis Center
Thu 19:44:10 39.7186 -84.0653 48° Northeast 107 123 6,800 864 Climbing Indianapolis Center
Thu 19:45:10 39.7406 -84.0364 45° Northeast 116 133 7,600 595 Climbing Indianapolis Center
Thu 19:46:11 39.7650 -84.0053 44° Northeast 122 140 8,000 197 Climbing Indianapolis Center
Thu 19:47:12 39.7989 -83.9622 44° Northeast 185 213 8,000 419 Level Indianapolis Center
Thu 19:48:20 39.8361 -83.9169 43° Northeast 159 183 8,900 522 Climbing Indianapolis Center
Thu 19:49:07 39.8567 -83.8906 45° Northeast 144 166 9,000  Climbing Indianapolis Center
Thu 19:50:24 39.8997 -83.8308 47° Northeast 170 196 8,900 -45 Descending Indianapolis Center
Thu 19:51:21 39.9325 -83.7889 44° Northeast 179 206 8,900  Level Indianapolis Center
Thu 19:52:09 39.9617 -83.7503 45° Northeast 175 201 8,900  Level Indianapolis Center
Thu 19:53:10 39.9956 -83.7069 44° Northeast 175 201 8,900  Level Indianapolis Center
Thu 19:54:11 40.0294 -83.6608 46° Northeast 177 204 8,900  Level Indianapolis Center
Thu 19:55:12 40.0661 -83.6122 45° Northeast 175 201 8,900  Level Indianapolis Center
Thu 19:56:13 40.1022 -83.5664 44° Northeast 179 206 8,900  Level Indianapolis Center
Thu 19:57:14 40.1342 -83.5197 48° Northeast 175 201 8,900  Level Indianapolis Center
Thu 19:58:15 40.1703 -83.4739 44° Northeast 178 205 8,900  Level Indianapolis Center
Thu 19:59:15 40.2042 -83.4275 46° Northeast 178 205 8,900  Level Indianapolis Center
Thu 20:00:16 40.2425 -83.3817 42° Northeast 178 205 8,900  Level Indianapolis Center
Thu 20:01:17 40.2783 -83.3356 44° Northeast 179 206 8,900  Level Indianapolis Center
Thu 20:02:18 40.3144 -83.2894 44° Northeast 175 201 8,900  Level Indianapolis Center
Thu 20:03:19 40.3506 -83.2433 44° Northeast 180 207 8,900  Level Indianapolis Center
Thu 20:04:20 40.3842 -83.1994 45° Northeast 177 204 8,900 40 Level Indianapolis Center
Thu 20:05:48 40.4353 -83.1317 45° Northeast 178 205 9,000  Climbing Indianapolis Center
Thu 20:06:50 40.4700 -83.0831 47° Northeast 180 207 8,900 -49 Descending Indianapolis Center
Thu 20:07:51 40.5056 -83.0339 46° Northeast 184 212 8,900  Level Indianapolis Center
Thu 20:08:53 40.5464 -82.9808 45° Northeast 184 212 8,900  Level Indianapolis Center
Thu 20:09:54 40.5836 -82.9336 44° Northeast 184 212 8,900  Level Indianapolis Center
Thu 20:10:56 40.6203 -82.8850 45° Northeast 184 212 8,900  Level Indianapolis Center
Thu 20:11:57 40.6564 -82.8378 45° Northeast 183 211 8,900  Level Indianapolis Center
Thu 20:12:59 40.6922 -82.7914 44° Northeast 180 207 8,900  Level Indianapolis Center
Thu 20:14:01 40.7275 -82.7439 46° Northeast 179 206 8,900  Level Indianapolis Center
Thu 20:15:02 40.7667 -82.6994 41° Northeast 182 209 8,900  Level Indianapolis Center
Thu 20:16:04 40.8028 -82.6531 44° Northeast 181 208 8,900 49 Level Indianapolis Center
Thu 20:17:05 40.8369 -82.6033 48° Northeast 181 208 9,000  Climbing Indianapolis Center
Thu 20:18:07 40.8744 -82.5569 43° Northeast 182 209 8,900 -97 Descending Indianapolis Center

Login

Don't have an account? Register now (free) for customized features, flight alerts, and more!